Time;durP1;ratioP1;P1;durP2;ratioP2;P2;SDS_P1;SDS_P2;PMS_P1;PMS_P2;Temp;Humidity;BMP_temperature;BMP_pressure;BME280_temperature;BME280_humidity;BME280_pressure;Samples;Min_cycle;Max_cycle;Signal;HPM_P1;HPM_P2
2022/12/19 00:02:05;;;;;;;28.83;16.50;;;0.30;99.90;;;;;;4970657;28;20121;-65
2022/12/19 00:04:32;;;;;;;31.25;21.00;;;1.60;99.90;;;;;;4976146;28;20054;-65
2022/12/19 00:06:58;;;;;;;27.40;16.70;;;0.90;99.90;;;;;;4978782;28;20094;-65
2022/12/19 00:09:24;;;;;;;31.77;18.33;;;1.10;99.90;;;;;;4972146;28;20402;-65
2022/12/19 00:11:50;;;;;;;31.15;18.80;;;0.90;99.90;;;;;;4971804;28;20138;-62
2022/12/19 00:14:16;;;;;;;31.30;18.33;;;0.10;99.90;;;;;;4972083;28;20182;-65
2022/12/19 00:16:42;;;;;;;28.83;17.13;;;0.10;99.90;;;;;;4971735;28;20382;-65
2022/12/19 00:19:09;;;;;;;39.20;23.45;;;1.50;99.90;;;;;;4971889;28;20046;-65
2022/12/19 00:21:35;;;;;;;32.03;17.15;;;0.30;99.90;;;;;;4970432;28;20073;-65
2022/12/19 00:24:02;;;;;;;35.70;22.73;;;1.10;99.90;;;;;;4972323;28;20047;-65
2022/12/19 00:26:31;;;;;;;28.90;17.08;;;1.30;99.90;;;;;;4971997;28;20118;-65
2022/12/19 00:29:01;;;;;;;37.30;21.95;;;0.20;99.90;;;;;;4971345;28;20537;-65
2022/12/19 00:31:29;;;;;;;33.65;20.13;;;0.20;99.90;;;;;;4971054;28;20055;-64
2022/12/19 00:33:55;;;;;;;26.85;15.45;;;1.20;99.90;;;;;;4970540;28;20064;-64
2022/12/19 00:36:24;;;;;;;34.50;20.42;;;0.80;99.90;;;;;;4971507;28;20047;-65
2022/12/19 00:38:51;;;;;;;39.58;23.63;;;0.40;99.90;;;;;;4971247;28;20429;-65
2022/12/19 00:41:20;;;;;;;34.63;22.35;;;0.50;99.90;;;;;;4971746;28;20462;-66
2022/12/19 00:43:50;;;;;;;31.85;18.95;;;0.90;99.90;;;;;;4969410;28;20042;-65
2022/12/19 00:46:16;;;;;;;34.95;21.55;;;1.20;99.90;;;;;;4970251;28;20598;-65
2022/12/19 00:48:42;;;;;;;37.88;23.45;;;1.80;99.90;;;;;;4970259;28;20047;-65
2022/12/19 00:51:17;;;;;;;27.60;16.83;;;0.30;99.90;;;;;;4971743;28;20039;-63
2022/12/19 00:53:44;;;;;;;34.38;17.77;;;1.30;99.90;;;;;;4970734;28;20086;-66
2022/12/19 00:56:15;;;;;;;28.67;17.02;;;0.60;99.90;;;;;;4971039;28;20051;-65
2022/12/19 00:58:42;;;;;;;33.15;18.48;;;0.60;99.90;;;;;;4971267;28;20042;-65
2022/12/19 01:01:12;;;;;;;30.15;16.77;;;1.20;99.90;;;;;;4970207;28;20047;-65
2022/12/19 01:03:38;;;;;;;30.55;18.20;;;0.60;99.90;;;;;;4972777;28;20446;-65
2022/12/19 01:06:04;;;;;;;31.17;17.85;;;0.30;99.90;;;;;;4981025;28;20039;-65
2022/12/19 01:08:30;;;;;;;31.50;18.67;;;0.70;99.90;;;;;;4971281;28;20047;-65
2022/12/19 01:10:56;;;;;;;28.90;14.88;;;0.50;99.90;;;;;;4970727;28;20105;-65
2022/12/19 01:13:27;;;;;;;33.33;19.73;;;0.50;99.90;;;;;;4970680;28;20125;-65
2022/12/19 01:15:53;;;;;;;32.35;19.60;;;0.90;99.90;;;;;;4969087;28;20051;-66
2022/12/19 01:18:19;;;;;;;38.22;25.70;;;1.40;99.90;;;;;;4970901;28;20618;-65
2022/12/19 01:20:48;;;;;;;30.20;16.88;;;1.10;99.90;;;;;;4969448;28;20105;-65
2022/12/19 01:23:16;;;;;;;29.42;16.25;;;1.00;99.90;;;;;;4970894;28;20043;-65
2022/12/19 01:25:46;;;;;;;25.50;13.95;;;1.00;99.90;;;;;;4970677;28;20053;-63
2022/12/19 01:28:14;;;;;;;27.00;15.05;;;0.90;99.90;;;;;;4970554;28;20045;-63
2022/12/19 01:30:40;;;;;;;37.30;23.25;;;1.70;99.90;;;;;;4969249;28;20113;-63
2022/12/19 01:33:07;;;;;;;31.00;18.85;;;1.00;99.90;;;;;;4971340;28;20047;-65
2022/12/19 01:35:33;;;;;;;36.75;23.85;;;0.80;99.90;;;;;;4968835;28;20081;-69
2022/12/19 01:37:59;;;;;;;38.15;25.45;;;0.60;99.90;;;;;;4978964;28;20078;-66
2022/12/19 01:40:24;;;;;;;37.90;23.55;;;1.40;99.90;;;;;;4989837;28;20042;-66
2022/12/19 01:42:50;;;;;;;33.85;19.58;;;1.00;99.90;;;;;;4989747;28;20390;-66
2022/12/19 01:45:16;;;;;;;29.30;16.10;;;1.40;99.90;;;;;;4988743;28;20049;-66
2022/12/19 01:47:48;;;;;;;43.13;26.63;;;1.30;99.90;;;;;;4989553;28;20054;-66
2022/12/19 01:50:19;;;;;;;32.40;21.23;;;0.90;99.90;;;;;;4989819;28;20046;-65
2022/12/19 01:52:46;;;;;;;32.47;17.63;;;1.10;99.90;;;;;;4989661;28;20042;-66
2022/12/19 01:55:13;;;;;;;34.70;20.45;;;1.30;99.90;;;;;;4989199;28;20069;-67
2022/12/19 01:57:38;;;;;;;30.95;16.10;;;0.70;99.90;;;;;;4989778;28;20457;-66
2022/12/19 02:00:08;;;;;;;38.85;25.23;;;1.00;99.90;;;;;;4987114;28;20086;-66
2022/12/19 02:02:47;;;;;;;42.13;25.23;;;0.90;99.90;;;;;;4989435;28;20399;-66
2022/12/19 02:05:13;;;;;;;31.23;16.65;;;0.80;99.90;;;;;;4983070;28;20113;-66
2022/12/19 02:07:40;;;;;;;30.25;18.60;;;1.80;99.90;;;;;;4971460;28;20422;-66
2022/12/19 02:10:06;;;;;;;28.48;15.52;;;1.50;99.90;;;;;;4969926;28;20050;-66
2022/12/19 02:12:39;;;;;;;34.83;16.80;;;0.90;99.90;;;;;;4969398;28;20042;-65
2022/12/19 02:15:06;;;;;;;35.30;20.30;;;1.90;99.90;;;;;;4968054;28;20058;-65
2022/12/19 02:17:31;;;;;;;34.85;21.40;;;1.00;99.90;;;;;;5045797;23;20100;-65
2022/12/19 02:20:26;;;;;;;34.30;18.67;;;2.00;99.90;;;;;;4981678;28;20043;-66
2022/12/19 02:23:07;;;;;;;30.88;18.52;;;0.80;99.90;;;;;;4972080;28;20125;-66
2022/12/19 02:25:51;;;;;;;32.55;19.45;;;0.80;99.90;;;;;;4988735;28;20054;-66
2022/12/19 02:28:40;;;;;;;35.28;21.52;;;0.90;99.90;;;;;;4987635;28;20043;-66
2022/12/19 02:31:23;;;;;;;34.60;18.67;;;1.10;99.90;;;;;;4987944;28;20382;-66
2022/12/19 02:33:58;;;;;;;42.60;27.02;;;1.80;99.90;;;;;;4988913;28;20038;-66
2022/12/19 02:36:47;;;;;;;34.38;20.00;;;1.30;99.90;;;;;;4989011;28;20050;-66
2022/12/19 02:39:38;;;;;;;30.20;16.73;;;1.30;99.90;;;;;;4988648;28;20047;-66
2022/12/19 02:42:06;;;;;;;33.03;19.45;;;1.30;99.90;;;;;;4988433;28;20046;-65
2022/12/19 02:44:51;;;;;;;37.75;22.88;;;1.60;99.90;;;;;;4987734;28;20038;-66
2022/12/19 02:47:19;;;;;;;;;;;1.30;99.90;;;;;;4989089;28;20054;-66
2022/12/19 02:49:45;;;;;;;37.35;20.90;;;1.00;99.90;;;;;;4988896;28;19921;-63
2022/12/19 02:52:19;;;;;;;37.00;23.08;;;1.40;99.90;;;;;;4988095;28;20054;-63
2022/12/19 02:54:46;;;;;;;;;;;1.10;99.90;;;;;;4988743;28;20397;-63
2022/12/19 02:57:29;;;;;;;39.28;21.20;;;1.50;99.90;;;;;;4988541;28;19929;-66
2022/12/19 03:00:16;;;;;;;39.13;16.73;;;1.20;99.90;;;;;;4988056;28;20073;-65
2022/12/19 03:03:00;;;;;;;45.55;26.88;;;1.20;99.90;;;;;;4988858;28;20046;-63
2022/12/19 03:05:29;;;;;;;40.70;23.40;;;1.00;99.90;;;;;;4980388;28;20473;-67
2022/12/19 03:08:05;;;;;;;34.03;18.27;;;1.10;99.90;;;;;;4968852;28;20055;-67
2022/12/19 03:10:47;;;;;;;36.25;18.17;;;1.00;99.90;;;;;;4967542;28;20046;-66
2022/12/19 03:13:35;;;;;;;35.95;20.25;;;1.50;99.90;;;;;;4969147;28;20082;-65
2022/12/19 03:16:02;;;;;;;47.40;25.60;;;1.00;99.90;;;;;;4967370;28;20073;-65
2022/12/19 03:18:28;;;;;;;46.10;26.13;;;1.20;99.90;;;;;;4983676;28;20055;-65
2022/12/19 03:21:14;;;;;;;33.65;18.05;;;2.00;99.90;;;;;;4968417;28;20117;-66
2022/12/19 03:23:41;;;;;;;55.15;30.83;;;1.00;99.90;;;;;;4966955;28;20047;-65
2022/12/19 03:26:16;;;;;;;51.35;28.13;;;1.20;99.90;;;;;;4969003;28;20462;-63
2022/12/19 03:28:51;;;;;;;39.95;21.92;;;1.80;99.90;;;;;;4969017;28;20046;-65
2022/12/19 03:31:18;;;;;;;;;;;1.30;99.90;;;;;;4968312;28;20375;-63
2022/12/19 03:33:47;;;;;;;50.20;29.55;;;1.20;99.90;;;;;;4969238;28;19961;-66
2022/12/19 03:36:19;;;;;;;41.30;21.25;;;1.00;99.90;;;;;;4968812;28;20054;-65
2022/12/19 03:38:46;;;;;;;40.03;19.33;;;2.00;99.90;;;;;;4968586;28;20126;-63
2022/12/19 03:41:14;;;;;;;45.33;26.42;;;1.20;99.90;;;;;;4968936;28;20043;-65
2022/12/19 03:43:42;;;;;;;52.67;29.25;;;1.50;99.90;;;;;;4968665;28;20050;-65
2022/12/19 03:46:31;;;;;;;54.35;28.80;;;1.90;99.90;;;;;;4967860;28;20112;-65
2022/12/19 03:48:57;;;;;;;57.05;29.50;;;1.10;99.90;;;;;;4968213;28;20137;-65
2022/12/19 03:51:30;;;;;;;44.63;25.17;;;2.20;99.90;;;;;;4968375;28;20114;-65
2022/12/19 03:54:02;;;;;;;49.47;25.33;;;1.40;99.90;;;;;;4968268;28;20047;-64
2022/12/19 03:56:33;;;;;;;45.90;23.70;;;1.10;99.90;;;;;;4968453;28;20130;-65
2022/12/19 03:59:08;;;;;;;51.70;26.63;;;1.30;99.90;;;;;;4967996;28;20049;-65
2022/12/19 04:01:34;;;;;;;;;;;1.40;99.90;;;;;;4966749;28;20046;-65
2022/12/19 04:04:02;;;;;;;43.88;24.13;;;1.50;99.90;;;;;;4970535;28;20024;-65
2022/12/19 04:06:31;;;;;;;60.28;33.17;;;1.20;99.90;;;;;;4976326;28;20552;-65
2022/12/19 04:08:58;;;;;;;45.45;22.83;;;1.20;99.90;;;;;;4968789;28;20490;-65
2022/12/19 04:11:26;;;;;;;56.33;32.05;;;2.50;99.90;;;;;;4968238;28;20053;-65
2022/12/19 04:14:01;;;;;;;47.47;26.92;;;2.40;99.90;;;;;;4966867;28;20122;-64
2022/12/19 04:16:37;;;;;;;;;;;1.70;99.90;;;;;;4968748;28;20131;-66
2022/12/19 04:19:30;;;;;;;44.72;22.15;;;1.70;99.90;;;;;;4987778;28;19968;-66
2022/12/19 04:22:04;;;;;;;42.40;26.02;;;1.60;99.90;;;;;;4999020;28;20508;-66
2022/12/19 04:24:35;;;;;;;54.20;28.40;;;2.10;99.90;;;;;;4991554;28;20397;-66
2022/12/19 04:27:04;;;;;;;42.92;22.77;;;1.80;99.90;;;;;;4990345;28;20374;-65
2022/12/19 04:29:33;;;;;;;50.55;26.45;;;1.60;99.90;;;;;;4990156;28;20050;-66
2022/12/19 04:32:00;;;;;;;55.20;28.50;;;1.90;99.90;;;;;;4991425;28;20069;-66
2022/12/19 04:34:26;;;;;;;46.63;24.75;;;1.90;99.90;;;;;;4989531;28;20072;-65
2022/12/19 04:36:52;;;;;;;54.63;27.70;;;1.60;99.90;;;;;;4990801;28;20046;-65
2022/12/19 04:39:17;;;;;;;55.00;28.48;;;1.90;99.90;;;;;;4991472;28;20038;-66
2022/12/19 04:41:43;;;;;;;39.95;22.40;;;2.00;99.90;;;;;;4990869;28;20112;-64
2022/12/19 04:44:09;;;;;;;42.55;21.42;;;2.00;99.90;;;;;;4990454;28;20081;-66
2022/12/19 04:46:34;;;;;;;50.03;28.27;;;1.80;99.90;;;;;;4991053;28;20041;-66
2022/12/19 04:49:00;;;;;;;39.63;23.20;;;2.00;99.90;;;;;;4990469;28;20054;-66
2022/12/19 04:51:26;;;;;;;33.67;18.45;;;1.90;99.90;;;;;;4990644;28;20050;-65
2022/12/19 04:53:51;;;;;;;47.80;26.88;;;2.80;99.90;;;;;;4991271;28;20050;-66
2022/12/19 04:56:17;;;;;;;47.20;24.25;;;2.10;99.90;;;;;;4990723;28;20042;-65
2022/12/19 04:58:43;;;;;;;50.25;28.17;;;2.10;99.90;;;;;;4990491;28;20054;-66
2022/12/19 05:01:09;;;;;;;47.92;29.45;;;2.50;99.90;;;;;;4989807;28;20437;-65
2022/12/19 05:03:35;;;;;;;51.25;26.88;;;2.50;99.90;;;;;;4988831;28;20049;-66
2022/12/19 05:06:13;;;;;;;70.80;38.75;;;2.10;99.90;;;;;;4981084;28;20054;-66
2022/12/19 05:08:41;;;;;;;40.58;20.13;;;2.20;99.90;;;;;;4970963;28;20149;-66
2022/12/19 05:11:09;;;;;;;62.97;34.78;;;2.30;99.90;;;;;;4969715;28;20058;-66
2022/12/19 05:13:35;;;;;;;52.72;31.42;;;1.90;99.90;;;;;;4971059;28;20051;-66
2022/12/19 05:16:03;;;;;;;43.10;26.15;;;2.40;99.90;;;;;;4969504;28;20505;-64
2022/12/19 05:18:29;;;;;;;47.08;25.02;;;2.20;99.90;;;;;;4971029;28;20055;-66
2022/12/19 05:20:55;;;;;;;46.67;24.13;;;2.30;99.90;;;;;;4970893;28;20063;-66
2022/12/19 05:23:21;;;;;;;41.10;21.58;;;2.60;99.90;;;;;;4971287;28;20500;-66
2022/12/19 05:25:48;;;;;;;46.40;23.88;;;2.00;99.90;;;;;;4970338;28;20039;-66
2022/12/19 05:28:14;;;;;;;46.53;26.15;;;2.40;99.90;;;;;;4969890;28;20047;-66
2022/12/19 05:30:40;;;;;;;53.67;28.20;;;2.30;99.90;;;;;;4969517;28;20034;-65
2022/12/19 05:33:05;;;;;;;37.95;22.83;;;3.10;99.90;;;;;;4969959;28;20537;-64
2022/12/19 05:35:32;;;;;;;53.67;27.38;;;2.40;99.90;;;;;;4969896;28;20051;-66
2022/12/19 05:37:58;;;;;;;40.70;22.13;;;2.00;99.90;;;;;;4970088;28;20094;-65
2022/12/19 05:40:24;;;;;;;41.33;23.60;;;2.50;99.90;;;;;;4970258;28;20054;-65
2022/12/19 05:42:49;;;;;;;40.00;20.48;;;2.40;99.90;;;;;;4970209;28;20062;-65
2022/12/19 05:45:15;;;;;;;44.88;25.27;;;2.40;99.90;;;;;;4969600;28;20580;-66
2022/12/19 05:47:43;;;;;;;40.22;20.58;;;2.80;99.90;;;;;;4969866;28;20398;-66
2022/12/19 05:50:09;;;;;;;38.53;21.75;;;2.30;99.90;;;;;;4969996;28;20121;-66
2022/12/19 05:52:35;;;;;;;44.35;23.02;;;2.50;99.90;;;;;;4969716;28;20063;-66
2022/12/19 05:55:01;;;;;;;40.72;22.52;;;2.50;99.90;;;;;;4970188;28;20472;-64
2022/12/19 05:57:27;;;;;;;49.33;28.02;;;2.30;99.90;;;;;;4968688;28;20054;-66
2022/12/19 05:59:52;;;;;;;46.17;29.38;;;2.70;99.90;;;;;;4970142;28;20433;-66
2022/12/19 06:02:18;;;;;;;31.88;17.95;;;2.50;99.90;;;;;;4970162;28;20042;-65
2022/12/19 06:04:44;;;;;;;34.00;20.17;;;2.60;99.90;;;;;;4975901;28;20132;-66
2022/12/19 06:07:10;;;;;;;39.35;21.67;;;2.50;99.90;;;;;;4975619;28;20047;-65
2022/12/19 06:09:35;;;;;;;45.67;28.05;;;2.70;99.90;;;;;;4969534;28;20058;-66
2022/12/19 06:12:01;;;;;;;49.10;26.83;;;2.30;99.90;;;;;;4968609;28;20165;-66
2022/12/19 06:14:27;;;;;;;42.20;22.20;;;2.40;99.90;;;;;;4969197;28;20043;-65
2022/12/19 06:16:52;;;;;;;50.03;27.50;;;2.60;99.90;;;;;;4970567;28;20049;-63
2022/12/19 06:19:19;;;;;;;42.78;27.75;;;2.70;99.90;;;;;;4969591;28;20082;-65
2022/12/19 06:21:45;;;;;;;33.95;16.45;;;2.40;99.90;;;;;;4969619;28;20054;-66
2022/12/19 06:24:11;;;;;;;37.65;22.80;;;2.60;99.90;;;;;;4970223;28;20056;-66
2022/12/19 06:26:36;;;;;;;53.83;32.22;;;2.80;99.90;;;;;;4970132;28;20552;-66
2022/12/19 06:29:02;;;;;;;48.55;27.85;;;3.00;99.90;;;;;;4968831;28;20404;-66
2022/12/19 06:31:28;;;;;;;36.28;20.40;;;2.60;99.90;;;;;;4969791;28;20053;-65
2022/12/19 06:33:54;;;;;;;45.17;24.17;;;2.90;99.90;;;;;;4970027;28;20045;-66
2022/12/19 06:36:23;;;;;;;49.03;27.25;;;2.80;99.90;;;;;;4968882;28;20082;-66
2022/12/19 06:38:50;;;;;;;33.40;17.17;;;2.80;99.90;;;;;;4969125;28;20113;-66
2022/12/19 06:44:05;;;;;;;41.80;23.63;;;2.70;99.90;;;;;;4968438;28;20113;-66
2022/12/19 06:46:31;;;;;;;34.22;18.27;;;2.80;99.90;;;;;;4969041;28;20046;-65
2022/12/19 06:48:57;;;;;;;41.47;23.13;;;2.80;99.90;;;;;;4969396;28;20054;-66
2022/12/19 06:51:23;;;;;;;57.38;32.72;;;2.70;99.90;;;;;;4968893;28;20351;-65
2022/12/19 06:53:49;;;;;;;58.30;33.53;;;3.00;99.90;;;;;;4969357;28;21021;-66
2022/12/19 06:56:16;;;;;;;49.42;28.70;;;2.80;99.90;;;;;;4969127;28;20043;-65
2022/12/19 06:58:41;;;;;;;40.60;23.63;;;3.40;99.90;;;;;;4969247;28;20039;-66
2022/12/19 07:01:15;;;;;;;46.90;26.80;;;3.10;99.90;;;;;;4967928;28;20402;-65
2022/12/19 07:03:40;;;;;;;33.17;18.23;;;2.90;99.90;;;;;;4970263;28;20046;-66
2022/12/19 07:06:06;;;;;;;44.45;24.23;;;3.00;99.90;;;;;;4977983;28;20038;-66
2022/12/19 07:08:32;;;;;;;34.22;17.77;;;2.90;99.90;;;;;;4968820;28;20047;-66
2022/12/19 07:10:58;;;;;;;48.20;26.00;;;3.10;99.90;;;;;;4969440;28;20061;-64
2022/12/19 07:13:24;;;;;;;43.00;24.98;;;3.10;99.90;;;;;;4968314;28;20034;-66
2022/12/19 07:15:53;;;;;;;51.35;29.95;;;3.40;99.90;;;;;;4967807;28;20046;-66
2022/12/19 07:18:19;;;;;;;42.63;26.42;;;3.10;99.90;;;;;;4968702;28;20053;-66
2022/12/19 07:20:45;;;;;;;36.35;20.70;;;3.40;99.90;;;;;;4967319;28;20054;-64
2022/12/19 07:23:15;;;;;;;48.30;28.58;;;3.50;99.90;;;;;;4968994;28;20300;-66
2022/12/19 07:25:41;;;;;;;27.60;15.20;;;3.50;99.90;;;;;;4968653;28;20131;-67
2022/12/19 07:28:08;;;;;;;47.15;28.95;;;3.20;99.90;;;;;;4968673;28;20075;-63
2022/12/19 07:30:34;;;;;;;42.50;26.80;;;3.30;99.90;;;;;;4967882;28;20046;-66
2022/12/19 07:32:59;;;;;;;43.88;24.90;;;3.50;99.90;;;;;;4968937;28;20043;-67
2022/12/19 07:35:25;;;;;;;36.38;20.98;;;3.20;99.90;;;;;;4968652;28;20133;-66
2022/12/19 07:37:51;;;;;;;45.53;27.48;;;3.30;99.90;;;;;;4968498;28;20074;-69
2022/12/19 07:40:17;;;;;;;38.17;23.05;;;3.80;99.90;;;;;;4968687;28;20043;-66
2022/12/19 07:42:44;;;;;;;47.03;28.77;;;3.30;99.90;;;;;;4968257;28;20049;-66
2022/12/19 07:45:10;;;;;;;40.58;25.48;;;3.40;99.90;;;;;;4967887;28;20071;-66
2022/12/19 07:47:36;;;;;;;46.05;30.23;;;3.70;99.90;;;;;;4968393;28;20050;-66
2022/12/19 07:50:02;;;;;;;40.50;25.77;;;3.50;99.90;;;;;;4968640;28;20055;-65
2022/12/19 07:52:28;;;;;;;39.55;23.38;;;3.40;99.90;;;;;;4970748;28;20039;-66
2022/12/19 07:54:54;;;;;;;25.58;15.57;;;3.60;99.90;;;;;;4972854;28;20122;-66
2022/12/19 07:57:19;;;;;;;35.42;22.67;;;3.80;99.90;;;;;;4972352;28;20050;-66
2022/12/19 07:59:45;;;;;;;40.15;24.70;;;3.90;99.90;;;;;;4971669;28;20073;-64
2022/12/19 08:02:11;;;;;;;42.67;25.52;;;3.70;99.90;;;;;;4971510;28;20749;-66
2022/12/19 08:04:37;;;;;;;40.03;25.88;;;3.90;99.90;;;;;;4976844;28;20119;-64
2022/12/19 08:07:03;;;;;;;44.20;28.45;;;3.80;99.90;;;;;;4978812;28;20098;-66
2022/12/19 08:09:29;;;;;;;41.38;28.10;;;4.10;99.90;;;;;;4972499;28;20575;-67
2022/12/19 08:11:54;;;;;;;36.28;23.85;;;4.20;99.90;;;;;;4972138;28;20082;-66
2022/12/19 08:14:20;;;;;;;32.05;21.80;;;3.90;99.90;;;;;;4970822;28;20043;-64
2022/12/19 08:16:46;;;;;;;35.95;23.80;;;3.90;99.90;;;;;;4971718;28;20086;-66
2022/12/19 08:19:12;;;;;;;32.63;22.08;;;4.20;99.90;;;;;;4971622;28;20050;-66
2022/12/19 08:21:37;;;;;;;33.67;20.40;;;4.00;99.90;;;;;;4971294;28;20054;-66
2022/12/19 08:24:03;;;;;;;28.60;18.77;;;4.20;99.90;;;;;;4991439;28;20485;-66
2022/12/19 08:26:29;;;;;;;32.90;21.83;;;4.10;99.90;;;;;;4990161;28;20596;-66
2022/12/19 08:28:56;;;;;;;32.47;22.80;;;4.30;99.90;;;;;;4990089;28;20058;-66
2022/12/19 08:31:24;;;;;;;32.60;24.13;;;4.40;99.90;;;;;;4991322;28;20067;-65
2022/12/19 08:33:51;;;;;;;18.77;11.38;;;4.60;99.90;;;;;;4991404;28;20421;-66
2022/12/19 08:36:18;;;;;;;31.10;22.92;;;4.40;99.90;;;;;;4990881;28;20108;-65
2022/12/19 08:38:44;;;;;;;32.60;21.38;;;4.30;99.90;;;;;;4991163;28;20046;-66
2022/12/19 08:41:10;;;;;;;21.55;12.80;;;4.30;99.90;;;;;;4991012;28;20042;-64
2022/12/19 08:43:37;;;;;;;26.77;16.23;;;4.50;99.90;;;;;;4990578;28;20546;-66
2022/12/19 08:46:03;;;;;;;33.10;22.52;;;4.80;99.90;;;;;;4990971;28;20109;-65
2022/12/19 08:48:30;;;;;;;24.85;16.50;;;4.70;99.90;;;;;;4990942;28;20050;-66
2022/12/19 08:50:58;;;;;;;25.35;16.98;;;4.40;99.90;;;;;;4990984;28;20050;-63
2022/12/19 08:53:26;;;;;;;28.08;20.02;;;4.70;99.90;;;;;;4990688;28;20070;-66
2022/12/19 08:56:09;;;;;;;26.27;18.98;;;4.60;99.90;;;;;;4990761;28;20081;-66
2022/12/19 08:58:34;;;;;;;15.00;11.45;;;4.70;99.90;;;;;;4989212;28;20042;-66
2022/12/19 09:01:03;;;;;;;26.02;17.10;;;4.90;99.90;;;;;;4988564;28;20540;-66
2022/12/19 09:03:30;;;;;;;27.13;19.77;;;4.50;99.90;;;;;;4986972;28;20046;-67
2022/12/19 09:06:01;;;;;;;18.55;11.55;;;4.50;99.90;;;;;;4980637;28;20937;-64
2022/12/19 09:08:27;;;;;;;26.75;18.98;;;4.60;99.90;;;;;;4970032;28;20046;-66
2022/12/19 09:11:08;;;;;;;29.00;20.73;;;4.60;99.90;;;;;;4969783;28;20046;-66
2022/12/19 09:13:35;;;;;;;22.85;15.60;;;4.80;99.90;;;;;;4969333;28;20038;-66
2022/12/19 09:16:06;;;;;;;26.58;19.15;;;4.70;99.90;;;;;;4969519;28;20410;-66
2022/12/19 09:18:31;;;;;;;27.88;20.48;;;4.80;99.90;;;;;;4969996;28;20055;-65
2022/12/19 09:20:58;;;;;;;25.60;19.35;;;5.10;99.90;;;;;;4970036;28;20667;-67
2022/12/19 09:23:26;;;;;;;26.65;20.15;;;4.80;99.90;;;;;;4969991;28;20049;-66
2022/12/19 09:25:52;;;;;;;26.30;19.52;;;4.70;99.90;;;;;;4969262;28;20098;-66
2022/12/19 09:28:18;;;;;;;25.40;19.52;;;4.80;99.90;;;;;;4970293;28;20047;-65
2022/12/19 09:30:44;;;;;;;22.15;14.95;;;5.00;99.90;;;;;;4969004;28;20394;-65
2022/12/19 09:33:11;;;;;;;23.85;17.55;;;5.20;99.90;;;;;;4968038;28;20050;-66
2022/12/19 09:35:37;;;;;;;19.60;13.38;;;5.20;99.90;;;;;;4969763;28;20517;-66
2022/12/19 09:38:03;;;;;;;18.48;11.98;;;5.00;99.90;;;;;;4969981;28;20145;-66
2022/12/19 09:40:41;;;;;;;22.90;17.30;;;5.10;99.90;;;;;;4969555;28;20085;-66
2022/12/19 09:43:36;;;;;;;18.05;10.32;;;5.10;99.90;;;;;;4969804;28;20054;-65
2022/12/19 09:46:19;;;;;;;27.02;18.50;;;5.20;99.90;;;;;;4969487;28;20421;-65
2022/12/19 09:48:46;;;;;;;17.38;11.15;;;5.40;99.90;;;;;;4984216;28;20038;-63
2022/12/19 09:51:19;;;;;;;16.30;11.70;;;5.40;99.90;;;;;;4969673;28;20062;-63
2022/12/19 09:54:00;;;;;;;27.70;19.25;;;5.50;99.90;;;;;;4969151;28;20078;-66
2022/12/19 09:56:29;;;;;;;20.92;14.35;;;5.30;99.90;;;;;;4969249;28;20634;-66
2022/12/19 09:59:03;;;;;;;27.98;20.63;;;5.30;99.90;;;;;;4968855;28;20402;-63
2022/12/19 10:01:38;;;;;;;30.98;22.98;;;5.20;99.90;;;;;;4969018;28;20543;-66
2022/12/19 10:04:04;;;;;;;;;;;5.60;99.90;;;;;;4972271;28;20035;-66
2022/12/19 10:06:30;;;;;;;28.60;21.25;;;5.30;99.90;;;;;;4977226;28;19928;-63
2022/12/19 10:08:55;;;;;;;21.83;14.40;;;5.30;99.90;;;;;;4968184;28;20053;-66
2022/12/19 10:11:33;;;;;;;29.13;23.05;;;5.50;99.90;;;;;;4969173;28;20493;-65
2022/12/19 10:14:19;;;;;;;31.27;21.50;;;5.80;99.90;;;;;;4967298;28;20613;-66
2022/12/19 10:16:51;;;;;;;19.67;13.73;;;5.80;99.90;;;;;;4969289;28;20430;-64
2022/12/19 10:19:34;;;;;;;25.52;18.40;;;5.90;99.90;;;;;;4969008;28;20059;-63
2022/12/19 10:22:37;;;;;;;26.70;18.13;;;5.90;99.90;;;;;;4969536;28;20425;-64
2022/12/19 10:25:12;;;;;;;20.70;12.43;;;5.60;99.90;;;;;;4969447;28;20047;-63
2022/12/19 10:27:49;;;;;;;23.70;17.00;;;5.90;99.90;;;;;;4969694;28;20042;-63
2022/12/19 10:30:19;;;;;;;31.75;23.35;;;5.80;99.90;;;;;;4967901;28;20057;-62
2022/12/19 10:33:23;;;;;;;21.17;13.38;;;5.60;99.90;;;;;;4967054;28;20118;-63
2022/12/19 10:36:00;;;;;;;27.88;20.77;;;6.10;99.90;;;;;;4968282;28;20577;-64
2022/12/19 10:38:49;;;;;;;30.10;21.27;;;6.00;99.90;;;;;;4972333;28;20051;-63
2022/12/19 10:41:24;;;;;;;24.70;15.57;;;5.60;99.90;;;;;;4990644;28;20061;-64
2022/12/19 10:44:06;;;;;;;24.50;16.05;;;6.10;99.90;;;;;;4987920;28;20038;-64
2022/12/19 10:46:44;;;;;;;20.85;13.63;;;6.10;99.90;;;;;;4987970;28;20121;-63
2022/12/19 10:49:20;;;;;;;22.08;14.77;;;6.00;99.90;;;;;;4988424;28;20042;-65
2022/12/19 10:52:00;;;;;;;24.65;16.27;;;5.80;99.90;;;;;;4988545;28;20075;-64
2022/12/19 10:54:38;;;;;;;22.52;15.80;;;6.00;99.90;;;;;;4988341;28;20047;-64
2022/12/19 10:57:25;;;;;;;23.92;18.45;;;5.90;99.90;;;;;;4987204;28;20061;-64
2022/12/19 11:00:05;;;;;;;19.75;11.95;;;6.00;99.90;;;;;;4987466;28;20136;-64
2022/12/19 11:02:52;;;;;;;19.75;12.88;;;6.20;99.90;;;;;;4987950;28;20073;-64
2022/12/19 11:05:49;;;;;;;19.15;12.43;;;6.10;99.90;;;;;;4981607;28;20042;-62
2022/12/19 11:08:19;;;;;;;21.60;15.77;;;6.30;99.90;;;;;;4968802;28;20039;-64
2022/12/19 11:11:08;;;;;;;23.98;15.10;;;6.10;99.90;;;;;;4967262;28;20046;-65
2022/12/19 11:13:34;;;;;;;24.55;18.45;;;6.40;99.90;;;;;;4967431;28;20051;-64
2022/12/19 11:16:02;;;;;;;18.17;11.45;;;6.60;99.90;;;;;;4967451;28;20509;-64
2022/12/19 11:18:42;;;;;;;14.73;11.23;;;6.10;99.90;;;;;;4966365;28;20050;-65
2022/12/19 11:21:17;;;;;;;24.55;17.70;;;6.60;99.90;;;;;;4968865;28;20375;-62
2022/12/19 11:23:49;;;;;;;20.92;16.73;;;6.20;99.90;;;;;;4968315;28;20053;-63
2022/12/19 11:26:46;;;;;;;21.67;16.10;;;6.60;99.90;;;;;;4967603;28;20062;-62
2022/12/19 11:29:35;;;;;;;18.38;14.38;;;6.50;99.90;;;;;;4978733;28;20133;-65
2022/12/19 11:32:01;;;;;;;17.88;13.32;;;6.20;99.90;;;;;;4967914;28;20109;-64
2022/12/19 11:34:30;;;;;;;13.98;9.10;;;6.60;99.90;;;;;;4967468;28;20039;-64
2022/12/19 11:37:05;;;;;;;21.17;15.75;;;6.60;99.90;;;;;;4983761;28;20456;-64
2022/12/19 11:40:01;;;;;;;17.90;12.30;;;6.40;99.90;;;;;;4987181;28;20512;-67
2022/12/19 11:42:45;;;;;;;19.23;14.52;;;6.30;99.90;;;;;;4986611;28;20057;-62
2022/12/19 11:45:54;;;;;;;20.30;16.30;;;6.80;99.90;;;;;;4986236;28;20046;-64
2022/12/19 11:48:23;;;;;;;16.95;12.95;;;6.60;99.90;;;;;;4986889;28;20038;-65
2022/12/19 11:51:07;;;;;;;12.95;9.02;;;6.40;99.90;;;;;;4986966;28;20413;-64
2022/12/19 11:53:43;;;;;;;13.82;8.90;;;6.30;99.90;;;;;;4987133;28;20074;-64
2022/12/19 11:56:17;;;;;;;20.33;15.85;;;6.80;99.90;;;;;;4986989;28;20520;-64
2022/12/19 11:58:51;;;;;;;18.88;14.35;;;6.80;99.90;;;;;;4987330;28;20130;-65
2022/12/19 12:01:20;;;;;;;20.17;16.17;;;6.80;99.90;;;;;;4974668;28;20041;-63
2022/12/19 12:04:18;;;;;;;21.45;15.57;;;6.70;99.90;;;;;;4984318;28;20063;-64
2022/12/19 12:06:49;;;;;;;15.65;10.75;;;6.50;99.90;;;;;;4978852;28;20069;-65
2022/12/19 12:09:39;;;;;;;13.55;9.35;;;7.00;99.90;;;;;;4987598;28;20053;-62
2022/12/19 12:12:38;;;;;;;24.65;17.02;;;6.50;99.90;;;;;;4986801;28;20085;-63
2022/12/19 12:15:19;;;;;;;15.30;10.52;;;6.70;99.90;;;;;;4985869;28;20042;-64
2022/12/19 12:18:07;;;;;;;16.80;11.90;;;6.80;99.90;;;;;;4986233;28;20463;-64
2022/12/19 12:20:44;;;;;;;20.73;16.70;;;6.50;99.90;;;;;;4967314;28;20051;-62
2022/12/19 12:23:34;;;;;;;15.80;11.23;;;7.00;99.90;;;;;;4967530;28;20054;-64
2022/12/19 12:26:27;;;;;;;14.35;11.30;;;6.80;99.90;;;;;;4967520;28;20061;-65
2022/12/19 12:29:10;;;;;;;15.80;11.00;;;6.60;99.90;;;;;;4966544;28;20117;-65
2022/12/19 12:31:42;;;;;;;17.80;13.57;;;6.70;99.90;;;;;;4966129;28;20078;-65
2022/12/19 12:34:33;;;;;;;15.73;11.02;;;7.10;99.90;;;;;;4967504;28;20472;-65
2022/12/19 12:37:29;;;;;;;18.95;14.20;;;7.10;99.90;;;;;;4970031;28;20051;-65
2022/12/19 12:40:09;;;;;;;21.88;16.27;;;6.90;99.90;;;;;;4979955;28;20039;-66
2022/12/19 12:43:07;;;;;;;16.35;13.13;;;7.00;99.90;;;;;;4973689;28;20070;-64
2022/12/19 12:45:43;;;;;;;21.38;15.43;;;6.90;99.90;;;;;;4970645;28;20038;-65
2022/12/19 12:48:41;;;;;;;18.42;14.45;;;6.70;99.90;;;;;;4970360;28;20069;-65
2022/12/19 12:51:08;;;;;;;21.00;15.85;;;6.70;99.90;;;;;;4977145;28;20141;-65
2022/12/19 12:53:37;;;;;;;24.67;18.05;;;6.80;99.90;;;;;;4970098;28;20054;-66
2022/12/19 12:56:05;;;;;;;19.75;12.95;;;7.10;99.90;;;;;;4984888;28;20100;-63
2022/12/19 12:58:45;;;;;;;15.07;11.70;;;7.10;99.90;;;;;;4988598;28;20100;-65
2022/12/19 13:01:31;;;;;;;20.92;16.20;;;7.00;99.90;;;;;;4989561;28;20564;-64
2022/12/19 13:04:03;;;;;;;20.42;16.30;;;6.70;99.90;;;;;;4984804;28;20038;-64